Suffield, Connecticut
Current Conditions -  °F | °C
As of 11:51 PM on Friday 21 Nov 2014 (Local Time) from KBDL Reporting Station
Clear Clear  
Wind Chill: 25°   Ceiling: Unl
Heat Index: 25°   Visibility: 10mi
Dew Point: 10°   Wind: 0mph
Humidity: 53%   Direction: NA
Pressure: 30.45"   Gusts: NA
Location:  41.98°N, 72.65°W
Report Text: KBDL 220451Z 00000KT 10SM CLR M04/M12 A3045 RMK AO2 SLP312 T10391122 400281050
Loading
Personal Weather Stations






























Interactive Weather Map New forecast layout! Learn more

10-Day Weather Forecast

Advertisements
Track Severe Weather on mobile